Las Vegas, Nevada
Current Conditions -  °F | °C
As of 2:56 PM on Tuesday 25 Nov 2014 (Local Time) from KLAS Reporting Station
Few Clouds Few Clouds  
Wind Chill: 17°   Ceiling: Unl
Heat Index: 17°   Visibility: 10mi
Dew Point: -11°   Wind: 6mph
Humidity: 14%   Direction: 160°SSE
Pressure: 30.32"   Gusts: NA
Location:  36.17°N, 115.13°W
Report Text: KLAS 252256Z 16005KT 10SM FEW250 17/M11 A3032 RMK AO2 SLP263 T01671111
Loading
Personal Weather Stations






























Interactive Weather Map New forecast layout! Learn more

10-Day Weather Forecast

Advertisements
Track Severe Weather on mobile